Terminal Aerodrome Forecast
Issued by NWS Albany, NY

Home | Current Version | Previous Version | Text Only | Print | Product List | Glossary On
Versions: 1 2 3 4 5 6 7 8 9 10 11 12 13 14 15 16 17
111
FTUS41 KALY 260154 AAB
TAFALB
TAF AMD
KALB 260154Z 2602/2624 VRB03KT 3SM -DZ BR SCT005 BKN025
      TEMPO 2602/2606 2SM -SHRA BR BKN004
     FM260800 26005KT 4SM BR VCSH OVC015
     FM261200 27010G20KT P6SM BKN015 OVC025
     FM261500 27015G22KT P6SM BKN025 BKN050=

USA.gov is the U.S. government's official web portal to all federal, state and local government web resources and services.